sensor_id;sensor_type;location;lat;lon;timestamp;P1;durP1;ratioP1;P2;durP2;ratioP2
39222;SDS011;24936;46.328;11.026;2023-09-08T00:01:17;74.50;;;70.03;;
39222;SDS011;24936;46.328;11.026;2023-09-08T00:03:43;63.33;;;59.45;;
39222;SDS011;24936;46.328;11.026;2023-09-08T00:06:08;67.05;;;63.00;;
39222;SDS011;24936;46.328;11.026;2023-09-08T00:08:33;62.00;;;58.30;;
39222;SDS011;24936;46.328;11.026;2023-09-08T00:10:59;77.22;;;72.63;;
39222;SDS011;24936;46.328;11.026;2023-09-08T00:13:24;65.45;;;61.55;;
39222;SDS011;24936;46.328;11.026;2023-09-08T00:15:50;66.50;;;62.58;;
39222;SDS011;24936;46.328;11.026;2023-09-08T00:18:15;76.82;;;72.22;;
39222;SDS011;24936;46.328;11.026;2023-09-08T00:20:41;88.38;;;83.22;;
39222;SDS011;24936;46.328;11.026;2023-09-08T00:23:07;57.00;;;53.60;;
39222;SDS011;24936;46.328;11.026;2023-09-08T00:25:32;80.18;;;75.45;;
39222;SDS011;24936;46.328;11.026;2023-09-08T00:27:59;65.50;;;61.63;;
39222;SDS011;24936;46.328;11.026;2023-09-08T00:30:25;82.00;;;77.03;;
39222;SDS011;24936;46.328;11.026;2023-09-08T00:32:50;88.47;;;83.18;;
39222;SDS011;24936;46.328;11.026;2023-09-08T00:35:16;85.85;;;80.70;;
39222;SDS011;24936;46.328;11.026;2023-09-08T00:37:41;98.68;;;92.63;;
39222;SDS011;24936;46.328;11.026;2023-09-08T00:40:07;99.28;;;93.32;;
39222;SDS011;24936;46.328;11.026;2023-09-08T00:42:35;101.03;;;94.70;;
39222;SDS011;24936;46.328;11.026;2023-09-08T00:47:27;96.80;;;90.95;;
39222;SDS011;24936;46.328;11.026;2023-09-08T00:49:53;93.05;;;87.28;;
39222;SDS011;24936;46.328;11.026;2023-09-08T00:52:19;100.25;;;93.88;;
39222;SDS011;24936;46.328;11.026;2023-09-08T00:54:44;99.07;;;93.05;;
39222;SDS011;24936;46.328;11.026;2023-09-08T00:57:10;101.53;;;95.30;;
39222;SDS011;24936;46.328;11.026;2023-09-08T00:59:35;99.60;;;93.38;;
39222;SDS011;24936;46.328;11.026;2023-09-08T01:02:01;99.05;;;93.05;;
39222;SDS011;24936;46.328;11.026;2023-09-08T01:04:28;94.30;;;88.53;;
39222;SDS011;24936;46.328;11.026;2023-09-08T01:06:54;88.20;;;82.80;;
39222;SDS011;24936;46.328;11.026;2023-09-08T01:09:21;87.75;;;82.30;;
39222;SDS011;24936;46.328;11.026;2023-09-08T01:11:47;72.57;;;68.05;;
39222;SDS011;24936;46.328;11.026;2023-09-08T01:14:13;66.45;;;62.38;;
39222;SDS011;24936;46.328;11.026;2023-09-08T01:16:39;66.30;;;62.15;;
39222;SDS011;24936;46.328;11.026;2023-09-08T01:19:07;71.18;;;66.78;;
39222;SDS011;24936;46.328;11.026;2023-09-08T01:26:52;68.93;;;64.63;;
39222;SDS011;24936;46.328;11.026;2023-09-08T01:29:18;63.53;;;59.40;;
39222;SDS011;24936;46.328;11.026;2023-09-08T01:31:45;65.03;;;60.90;;
39222;SDS011;24936;46.328;11.026;2023-09-08T01:34:12;71.05;;;66.63;;
39222;SDS011;24936;46.328;11.026;2023-09-08T01:36:42;65.25;;;61.25;;
39222;SDS011;24936;46.328;11.026;2023-09-08T01:39:07;66.63;;;62.53;;
39222;SDS011;24936;46.328;11.026;2023-09-08T01:41:32;63.03;;;59.05;;
39222;SDS011;24936;46.328;11.026;2023-09-08T01:43:58;64.45;;;60.38;;
39222;SDS011;24936;46.328;11.026;2023-09-08T01:46:24;61.15;;;57.35;;
39222;SDS011;24936;46.328;11.026;2023-09-08T01:48:50;71.85;;;67.38;;
39222;SDS011;24936;46.328;11.026;2023-09-08T01:51:15;72.03;;;67.43;;
39222;SDS011;24936;46.328;11.026;2023-09-08T01:53:40;68.55;;;64.25;;
39222;SDS011;24936;46.328;11.026;2023-09-08T01:56:06;59.85;;;56.10;;
39222;SDS011;24936;46.328;11.026;2023-09-08T02:00:59;73.68;;;69.13;;
39222;SDS011;24936;46.328;11.026;2023-09-08T02:03:30;62.45;;;58.55;;
39222;SDS011;24936;46.328;11.026;2023-09-08T02:05:56;67.28;;;63.03;;
39222;SDS011;24936;46.328;11.026;2023-09-08T02:08:22;76.55;;;71.80;;
39222;SDS011;24936;46.328;11.026;2023-09-08T02:10:47;79.32;;;74.40;;
39222;SDS011;24936;46.328;11.026;2023-09-08T02:13:13;85.45;;;80.30;;
39222;SDS011;24936;46.328;11.026;2023-09-08T02:15:38;78.80;;;74.00;;
39222;SDS011;24936;46.328;11.026;2023-09-08T02:18:03;80.00;;;75.22;;
39222;SDS011;24936;46.328;11.026;2023-09-08T02:20:29;77.68;;;72.97;;
39222;SDS011;24936;46.328;11.026;2023-09-08T02:22:55;73.47;;;68.97;;
39222;SDS011;24936;46.328;11.026;2023-09-08T02:25:20;87.32;;;81.78;;
39222;SDS011;24936;46.328;11.026;2023-09-08T02:27:48;86.15;;;80.90;;
39222;SDS011;24936;46.328;11.026;2023-09-08T02:30:13;85.63;;;80.40;;
39222;SDS011;24936;46.328;11.026;2023-09-08T02:32:38;69.70;;;65.50;;
39222;SDS011;24936;46.328;11.026;2023-09-08T02:35:08;90.70;;;85.22;;
39222;SDS011;24936;46.328;11.026;2023-09-08T02:37:33;106.40;;;99.93;;
39222;SDS011;24936;46.328;11.026;2023-09-08T02:39:59;76.35;;;71.72;;
39222;SDS011;24936;46.328;11.026;2023-09-08T02:42:24;116.43;;;109.25;;
39222;SDS011;24936;46.328;11.026;2023-09-08T02:44:50;97.17;;;91.23;;
39222;SDS011;24936;46.328;11.026;2023-09-08T02:47:15;109.30;;;102.63;;
39222;SDS011;24936;46.328;11.026;2023-09-08T02:49:40;84.53;;;79.30;;
39222;SDS011;24936;46.328;11.026;2023-09-08T02:52:06;85.27;;;80.00;;
39222;SDS011;24936;46.328;11.026;2023-09-08T02:54:31;120.67;;;113.23;;
39222;SDS011;24936;46.328;11.026;2023-09-08T02:56:57;106.00;;;99.43;;
39222;SDS011;24936;46.328;11.026;2023-09-08T02:59:22;75.97;;;71.20;;
39222;SDS011;24936;46.328;11.026;2023-09-08T03:01:47;112.03;;;104.77;;
39222;SDS011;24936;46.328;11.026;2023-09-08T03:04:13;115.65;;;108.32;;
39222;SDS011;24936;46.328;11.026;2023-09-08T03:06:39;132.25;;;123.90;;
39222;SDS011;24936;46.328;11.026;2023-09-08T03:09:04;122.68;;;115.00;;
39222;SDS011;24936;46.328;11.026;2023-09-08T03:11:30;102.88;;;96.35;;
39222;SDS011;24936;46.328;11.026;2023-09-08T03:13:55;122.55;;;114.95;;
39222;SDS011;24936;46.328;11.026;2023-09-08T03:16:20;109.90;;;103.13;;
39222;SDS011;24936;46.328;11.026;2023-09-08T03:18:46;145.07;;;135.97;;
39222;SDS011;24936;46.328;11.026;2023-09-08T03:21:13;107.10;;;100.50;;
39222;SDS011;24936;46.328;11.026;2023-09-08T03:23:39;108.88;;;102.18;;
39222;SDS011;24936;46.328;11.026;2023-09-08T03:26:06;127.32;;;119.15;;
39222;SDS011;24936;46.328;11.026;2023-09-08T03:28:33;103.78;;;97.35;;
39222;SDS011;24936;46.328;11.026;2023-09-08T03:31:00;137.00;;;128.32;;
39222;SDS011;24936;46.328;11.026;2023-09-08T03:33:26;131.63;;;123.40;;
39222;SDS011;24936;46.328;11.026;2023-09-08T03:35:52;110.68;;;103.75;;
39222;SDS011;24936;46.328;11.026;2023-09-08T03:38:17;138.93;;;130.20;;
39222;SDS011;24936;46.328;11.026;2023-09-08T03:40:43;102.70;;;96.13;;
39222;SDS011;24936;46.328;11.026;2023-09-08T03:43:08;147.02;;;137.88;;
39222;SDS011;24936;46.328;11.026;2023-09-08T03:45:34;123.45;;;115.72;;
39222;SDS011;24936;46.328;11.026;2023-09-08T03:47:59;144.98;;;135.90;;
39222;SDS011;24936;46.328;11.026;2023-09-08T03:50:25;158.38;;;148.18;;
39222;SDS011;24936;46.328;11.026;2023-09-08T03:52:50;155.70;;;145.65;;
39222;SDS011;24936;46.328;11.026;2023-09-08T03:55:16;126.13;;;118.28;;
39222;SDS011;24936;46.328;11.026;2023-09-08T03:57:42;151.52;;;142.07;;
39222;SDS011;24936;46.328;11.026;2023-09-08T04:00:07;135.05;;;126.45;;
39222;SDS011;24936;46.328;11.026;2023-09-08T04:02:35;157.40;;;147.50;;
39222;SDS011;24936;46.328;11.026;2023-09-08T04:05:01;132.13;;;123.82;;
39222;SDS011;24936;46.328;11.026;2023-09-08T04:07:26;118.70;;;111.07;;
39222;SDS011;24936;46.328;11.026;2023-09-08T04:09:52;137.10;;;128.30;;
39222;SDS011;24936;46.328;11.026;2023-09-08T04:12:17;120.90;;;113.13;;
39222;SDS011;24936;46.328;11.026;2023-09-08T04:14:42;115.35;;;107.70;;
39222;SDS011;24936;46.328;11.026;2023-09-08T04:17:08;125.70;;;117.57;;
39222;SDS011;24936;46.328;11.026;2023-09-08T04:19:33;124.88;;;117.15;;
39222;SDS011;24936;46.328;11.026;2023-09-08T04:21:59;131.60;;;123.10;;
39222;SDS011;24936;46.328;11.026;2023-09-08T04:24:24;131.57;;;122.50;;
39222;SDS011;24936;46.328;11.026;2023-09-08T04:26:50;122.33;;;114.57;;
39222;SDS011;24936;46.328;11.026;2023-09-08T04:29:15;125.40;;;117.50;;
39222;SDS011;24936;46.328;11.026;2023-09-08T04:31:41;126.97;;;118.93;;
39222;SDS011;24936;46.328;11.026;2023-09-08T04:34:06;111.10;;;104.10;;
39222;SDS011;24936;46.328;11.026;2023-09-08T04:36:31;112.83;;;105.67;;
39222;SDS011;24936;46.328;11.026;2023-09-08T04:38:57;112.97;;;105.77;;
39222;SDS011;24936;46.328;11.026;2023-09-08T04:41:22;122.53;;;114.78;;
39222;SDS011;24936;46.328;11.026;2023-09-08T04:43:48;109.73;;;102.83;;
39222;SDS011;24936;46.328;11.026;2023-09-08T04:46:13;92.63;;;86.85;;
39222;SDS011;24936;46.328;11.026;2023-09-08T04:48:38;118.57;;;110.90;;
39222;SDS011;24936;46.328;11.026;2023-09-08T04:51:04;111.97;;;104.80;;
39222;SDS011;24936;46.328;11.026;2023-09-08T04:53:29;104.45;;;97.72;;
39222;SDS011;24936;46.328;11.026;2023-09-08T04:55:55;111.10;;;104.00;;
39222;SDS011;24936;46.328;11.026;2023-09-08T04:58:20;92.20;;;86.30;;
39222;SDS011;24936;46.328;11.026;2023-09-08T05:00:46;111.97;;;104.95;;
39222;SDS011;24936;46.328;11.026;2023-09-08T05:03:11;110.57;;;103.53;;
39222;SDS011;24936;46.328;11.026;2023-09-08T05:05:36;102.55;;;96.00;;
39222;SDS011;24936;46.328;11.026;2023-09-08T05:08:02;103.57;;;97.17;;
39222;SDS011;24936;46.328;11.026;2023-09-08T05:10:27;111.15;;;104.18;;
39222;SDS011;24936;46.328;11.026;2023-09-08T05:12:53;111.55;;;104.47;;
39222;SDS011;24936;46.328;11.026;2023-09-08T05:15:18;105.00;;;98.07;;
39222;SDS011;24936;46.328;11.026;2023-09-08T05:17:46;92.05;;;86.15;;
39222;SDS011;24936;46.328;11.026;2023-09-08T05:20:12;92.20;;;86.35;;
39222;SDS011;24936;46.328;11.026;2023-09-08T05:22:37;107.93;;;101.05;;
39222;SDS011;24936;46.328;11.026;2023-09-08T05:25:03;96.27;;;90.10;;
39222;SDS011;24936;46.328;11.026;2023-09-08T05:27:29;83.97;;;78.50;;
39222;SDS011;24936;46.328;11.026;2023-09-08T05:29:54;76.13;;;71.28;;
39222;SDS011;24936;46.328;11.026;2023-09-08T05:32:19;89.38;;;83.57;;
39222;SDS011;24936;46.328;11.026;2023-09-08T05:34:45;88.57;;;82.95;;
39222;SDS011;24936;46.328;11.026;2023-09-08T05:37:10;96.30;;;90.03;;
39222;SDS011;24936;46.328;11.026;2023-09-08T05:39:36;79.07;;;73.82;;
39222;SDS011;24936;46.328;11.026;2023-09-08T05:42:01;162.48;;;151.32;;
39222;SDS011;24936;46.328;11.026;2023-09-08T05:44:27;106.65;;;99.88;;
39222;SDS011;24936;46.328;11.026;2023-09-08T05:46:52;101.93;;;95.23;;
39222;SDS011;24936;46.328;11.026;2023-09-08T05:49:17;102.73;;;96.07;;
39222;SDS011;24936;46.328;11.026;2023-09-08T05:51:43;96.27;;;89.83;;
39222;SDS011;24936;46.328;11.026;2023-09-08T05:54:09;87.07;;;81.38;;
39222;SDS011;24936;46.328;11.026;2023-09-08T05:56:36;89.22;;;83.43;;
39222;SDS011;24936;46.328;11.026;2023-09-08T05:59:02;70.90;;;66.43;;
39222;SDS011;24936;46.328;11.026;2023-09-08T06:01:27;132.15;;;123.55;;
39222;SDS011;24936;46.328;11.026;2023-09-08T06:03:53;93.10;;;87.00;;
39222;SDS011;24936;46.328;11.026;2023-09-08T06:06:19;99.78;;;93.32;;
39222;SDS011;24936;46.328;11.026;2023-09-08T06:08:46;282.05;;;261.83;;
39222;SDS011;24936;46.328;11.026;2023-09-08T06:11:12;201.20;;;187.52;;
39222;SDS011;24936;46.328;11.026;2023-09-08T06:13:38;267.65;;;247.70;;
39222;SDS011;24936;46.328;11.026;2023-09-08T06:16:03;229.80;;;213.68;;
39222;SDS011;24936;46.328;11.026;2023-09-08T06:18:28;63.78;;;59.63;;
39222;SDS011;24936;46.328;11.026;2023-09-08T06:20:55;69.03;;;64.63;;
39222;SDS011;24936;46.328;11.026;2023-09-08T06:23:21;129.75;;;120.38;;
39222;SDS011;24936;46.328;11.026;2023-09-08T06:25:47;202.85;;;187.95;;
39222;SDS011;24936;46.328;11.026;2023-09-08T06:28:13;132.93;;;123.90;;
39222;SDS011;24936;46.328;11.026;2023-09-08T06:30:39;96.45;;;90.38;;
39222;SDS011;24936;46.328;11.026;2023-09-08T06:33:07;107.00;;;99.97;;
39222;SDS011;24936;46.328;11.026;2023-09-08T06:35:34;110.65;;;103.30;;
39222;SDS011;24936;46.328;11.026;2023-09-08T06:38:00;141.18;;;131.95;;
39222;SDS011;24936;46.328;11.026;2023-09-08T06:40:25;143.00;;;133.75;;
39222;SDS011;24936;46.328;11.026;2023-09-08T06:42:51;117.85;;;110.43;;
39222;SDS011;24936;46.328;11.026;2023-09-08T06:45:17;134.20;;;125.57;;
39222;SDS011;24936;46.328;11.026;2023-09-08T06:50:09;179.80;;;168.32;;
39222;SDS011;24936;46.328;11.026;2023-09-08T06:52:35;160.50;;;150.30;;
39222;SDS011;24936;46.328;11.026;2023-09-08T06:55:00;143.55;;;134.38;;
39222;SDS011;24936;46.328;11.026;2023-09-08T06:57:26;164.88;;;154.50;;
39222;SDS011;24936;46.328;11.026;2023-09-08T06:59:52;155.63;;;145.75;;
39222;SDS011;24936;46.328;11.026;2023-09-08T07:02:17;162.25;;;151.90;;
39222;SDS011;24936;46.328;11.026;2023-09-08T07:04:42;287.98;;;268.58;;
39222;SDS011;24936;46.328;11.026;2023-09-08T07:07:08;195.05;;;182.63;;
39222;SDS011;24936;46.328;11.026;2023-09-08T07:09:35;151.77;;;142.05;;
39222;SDS011;24936;46.328;11.026;2023-09-08T07:12:02;174.90;;;163.45;;
39222;SDS011;24936;46.328;11.026;2023-09-08T07:14:31;92.85;;;86.97;;
39222;SDS011;24936;46.328;11.026;2023-09-08T07:19:23;65.80;;;61.65;;
39222;SDS011;24936;46.328;11.026;2023-09-08T07:21:48;89.57;;;83.90;;
39222;SDS011;24936;46.328;11.026;2023-09-08T07:24:14;75.40;;;70.78;;
39222;SDS011;24936;46.328;11.026;2023-09-08T07:26:39;70.38;;;65.97;;
39222;SDS011;24936;46.328;11.026;2023-09-08T07:29:04;157.30;;;146.95;;
39222;SDS011;24936;46.328;11.026;2023-09-08T07:33:55;88.57;;;83.15;;
39222;SDS011;24936;46.328;11.026;2023-09-08T07:36:20;61.15;;;57.25;;
39222;SDS011;24936;46.328;11.026;2023-09-08T07:38:46;75.05;;;70.47;;
39222;SDS011;24936;46.328;11.026;2023-09-08T07:41:12;70.15;;;65.88;;
39222;SDS011;24936;46.328;11.026;2023-09-08T07:43:37;91.47;;;86.00;;
39222;SDS011;24936;46.328;11.026;2023-09-08T07:46:05;87.47;;;82.13;;
39222;SDS011;24936;46.328;11.026;2023-09-08T07:48:33;82.30;;;77.40;;
39222;SDS011;24936;46.328;11.026;2023-09-08T07:53:25;71.88;;;67.40;;
39222;SDS011;24936;46.328;11.026;2023-09-08T07:55:54;88.93;;;83.47;;
39222;SDS011;24936;46.328;11.026;2023-09-08T08:00:44;79.82;;;75.03;;
39222;SDS011;24936;46.328;11.026;2023-09-08T08:05:35;93.88;;;88.10;;
39222;SDS011;24936;46.328;11.026;2023-09-08T08:10:26;140.48;;;131.82;;
39222;SDS011;24936;46.328;11.026;2023-09-08T08:15:18;100.65;;;94.45;;
39222;SDS011;24936;46.328;11.026;2023-09-08T08:17:47;94.50;;;88.68;;
39222;SDS011;24936;46.328;11.026;2023-09-08T08:22:42;86.68;;;81.22;;
39222;SDS011;24936;46.328;11.026;2023-09-08T08:25:10;135.00;;;126.65;;
39222;SDS011;24936;46.328;11.026;2023-09-08T08:27:37;94.38;;;88.80;;
39222;SDS011;24936;46.328;11.026;2023-09-08T08:32:28;81.82;;;77.00;;
39222;SDS011;24936;46.328;11.026;2023-09-08T08:37:19;125.38;;;117.68;;
39222;SDS011;24936;46.328;11.026;2023-09-08T08:42:10;94.90;;;89.15;;
39222;SDS011;24936;46.328;11.026;2023-09-08T08:44:37;79.95;;;75.25;;
39222;SDS011;24936;46.328;11.026;2023-09-08T08:47:03;68.72;;;64.53;;
39222;SDS011;24936;46.328;11.026;2023-09-08T08:49:31;56.13;;;52.78;;
39222;SDS011;24936;46.328;11.026;2023-09-08T08:51:57;73.43;;;68.97;;
39222;SDS011;24936;46.328;11.026;2023-09-08T08:54:24;96.20;;;89.95;;
39222;SDS011;24936;46.328;11.026;2023-09-08T08:56:50;59.30;;;55.75;;
39222;SDS011;24936;46.328;11.026;2023-09-08T08:59:16;59.97;;;56.47;;
39222;SDS011;24936;46.328;11.026;2023-09-08T09:01:42;47.38;;;44.53;;
39222;SDS011;24936;46.328;11.026;2023-09-08T09:04:08;64.47;;;60.55;;
39222;SDS011;24936;46.328;11.026;2023-09-08T09:06:35;66.07;;;62.20;;
39222;SDS011;24936;46.328;11.026;2023-09-08T09:09:01;47.25;;;44.38;;
39222;SDS011;24936;46.328;11.026;2023-09-08T09:11:30;40.10;;;37.75;;
39222;SDS011;24936;46.328;11.026;2023-09-08T09:13:57;43.60;;;41.13;;
39222;SDS011;24936;46.328;11.026;2023-09-08T09:16:23;37.67;;;35.47;;
39222;SDS011;24936;46.328;11.026;2023-09-08T09:18:55;35.75;;;33.65;;
39222;SDS011;24936;46.328;11.026;2023-09-08T09:21:23;33.20;;;31.05;;
39222;SDS011;24936;46.328;11.026;2023-09-08T09:23:48;29.88;;;28.20;;
39222;SDS011;24936;46.328;11.026;2023-09-08T09:26:24;26.10;;;24.70;;
39222;SDS011;24936;46.328;11.026;2023-09-08T09:28:51;35.90;;;33.92;;
39222;SDS011;24936;46.328;11.026;2023-09-08T09:31:18;49.83;;;46.97;;
39222;SDS011;24936;46.328;11.026;2023-09-08T09:33:47;42.60;;;40.22;;
39222;SDS011;24936;46.328;11.026;2023-09-08T09:36:21;47.67;;;44.92;;
39222;SDS011;24936;46.328;11.026;2023-09-08T09:38:47;38.97;;;36.78;;
39222;SDS011;24936;46.328;11.026;2023-09-08T09:41:12;55.78;;;52.60;;
39222;SDS011;24936;46.328;11.026;2023-09-08T09:43:38;54.75;;;51.65;;
39222;SDS011;24936;46.328;11.026;2023-09-08T09:46:06;38.40;;;36.30;;
39222;SDS011;24936;46.328;11.026;2023-09-08T09:48:33;44.72;;;42.05;;
39222;SDS011;24936;46.328;11.026;2023-09-08T09:51:00;40.17;;;37.97;;
39222;SDS011;24936;46.328;11.026;2023-09-08T09:53:40;48.95;;;46.17;;
39222;SDS011;24936;46.328;11.026;2023-09-08T09:56:07;61.38;;;57.88;;
39222;SDS011;24936;46.328;11.026;2023-09-08T09:58:35;34.75;;;32.83;;
39222;SDS011;24936;46.328;11.026;2023-09-08T10:01:02;49.17;;;46.35;;
39222;SDS011;24936;46.328;11.026;2023-09-08T10:03:29;33.28;;;31.27;;
39222;SDS011;24936;46.328;11.026;2023-09-08T10:05:55;27.60;;;26.10;;
39222;SDS011;24936;46.328;11.026;2023-09-08T10:08:21;46.25;;;43.65;;
39222;SDS011;24936;46.328;11.026;2023-09-08T10:10:47;29.55;;;27.90;;
39222;SDS011;24936;46.328;11.026;2023-09-08T10:13:16;63.58;;;60.13;;
39222;SDS011;24936;46.328;11.026;2023-09-08T10:15:46;53.33;;;50.33;;
39222;SDS011;24936;46.328;11.026;2023-09-08T10:18:14;46.55;;;43.85;;
39222;SDS011;24936;46.328;11.026;2023-09-08T10:20:44;33.22;;;31.27;;
39222;SDS011;24936;46.328;11.026;2023-09-08T10:23:15;46.38;;;43.67;;
39222;SDS011;24936;46.328;11.026;2023-09-08T10:26:16;34.38;;;32.47;;
39222;SDS011;24936;46.328;11.026;2023-09-08T10:28:42;40.95;;;38.67;;
39222;SDS011;24936;46.328;11.026;2023-09-08T10:31:09;66.40;;;62.78;;
39222;SDS011;24936;46.328;11.026;2023-09-08T10:33:36;26.50;;;25.08;;
39222;SDS011;24936;46.328;11.026;2023-09-08T10:36:02;27.58;;;25.98;;
39222;SDS011;24936;46.328;11.026;2023-09-08T10:38:33;34.65;;;32.72;;
39222;SDS011;24936;46.328;11.026;2023-09-08T10:43:40;34.45;;;32.30;;
39222;SDS011;24936;46.328;11.026;2023-09-08T10:46:09;22.58;;;21.25;;
39222;SDS011;24936;46.328;11.026;2023-09-08T10:48:41;18.83;;;17.75;;
39222;SDS011;24936;46.328;11.026;2023-09-08T10:51:12;34.92;;;32.95;;
39222;SDS011;24936;46.328;11.026;2023-09-08T10:53:39;38.28;;;36.13;;
39222;SDS011;24936;46.328;11.026;2023-09-08T10:56:05;30.85;;;29.13;;
39222;SDS011;24936;46.328;11.026;2023-09-08T11:00:58;45.65;;;43.03;;
39222;SDS011;24936;46.328;11.026;2023-09-08T11:03:35;35.42;;;33.45;;
39222;SDS011;24936;46.328;11.026;2023-09-08T11:06:09;42.60;;;40.10;;
39222;SDS011;24936;46.328;11.026;2023-09-08T11:08:38;48.38;;;45.65;;
39222;SDS011;24936;46.328;11.026;2023-09-08T11:11:06;31.00;;;29.35;;
39222;SDS011;24936;46.328;11.026;2023-09-08T11:13:32;30.40;;;28.75;;
39222;SDS011;24936;46.328;11.026;2023-09-08T11:15:58;37.33;;;35.20;;
39222;SDS011;24936;46.328;11.026;2023-09-08T11:18:30;30.30;;;28.50;;
39222;SDS011;24936;46.328;11.026;2023-09-08T11:20:56;33.28;;;31.42;;
39222;SDS011;24936;46.328;11.026;2023-09-08T11:23:22;37.78;;;35.60;;
39222;SDS011;24936;46.328;11.026;2023-09-08T11:25:49;22.92;;;21.65;;
39222;SDS011;24936;46.328;11.026;2023-09-08T11:28:15;29.08;;;27.48;;
39222;SDS011;24936;46.328;11.026;2023-09-08T11:30:41;29.85;;;28.20;;
39222;SDS011;24936;46.328;11.026;2023-09-08T11:33:16;27.42;;;25.85;;
39222;SDS011;24936;46.328;11.026;2023-09-08T11:38:10;21.20;;;20.00;;
39222;SDS011;24936;46.328;11.026;2023-09-08T11:40:36;23.30;;;22.05;;
39222;SDS011;24936;46.328;11.026;2023-09-08T11:43:02;24.80;;;23.42;;
39222;SDS011;24936;46.328;11.026;2023-09-08T11:45:29;28.23;;;26.65;;
39222;SDS011;24936;46.328;11.026;2023-09-08T11:47:55;21.92;;;20.73;;
39222;SDS011;24936;46.328;11.026;2023-09-08T11:50:21;27.85;;;26.33;;
39222;SDS011;24936;46.328;11.026;2023-09-08T11:52:49;27.27;;;25.77;;
39222;SDS011;24936;46.328;11.026;2023-09-08T11:55:16;28.63;;;27.02;;
39222;SDS011;24936;46.328;11.026;2023-09-08T11:57:43;16.50;;;15.68;;
39222;SDS011;24936;46.328;11.026;2023-09-08T12:00:11;53.20;;;50.20;;
39222;SDS011;24936;46.328;11.026;2023-09-08T12:02:41;51.20;;;48.35;;
39222;SDS011;24936;46.328;11.026;2023-09-08T12:05:20;30.35;;;28.67;;
39222;SDS011;24936;46.328;11.026;2023-09-08T12:07:50;49.92;;;47.13;;
39222;SDS011;24936;46.328;11.026;2023-09-08T12:10:17;40.85;;;38.60;;
39222;SDS011;24936;46.328;11.026;2023-09-08T12:12:47;37.70;;;35.60;;
39222;SDS011;24936;46.328;11.026;2023-09-08T12:18:12;35.88;;;33.90;;
39222;SDS011;24936;46.328;11.026;2023-09-08T12:20:40;55.35;;;52.33;;
39222;SDS011;24936;46.328;11.026;2023-09-08T12:23:15;74.43;;;70.20;;
39222;SDS011;24936;46.328;11.026;2023-09-08T12:25:50;48.95;;;46.28;;
39222;SDS011;24936;46.328;11.026;2023-09-08T12:28:18;43.95;;;41.45;;
39222;SDS011;24936;46.328;11.026;2023-09-08T12:30:45;38.17;;;36.03;;
39222;SDS011;24936;46.328;11.026;2023-09-08T12:33:11;53.47;;;50.33;;
39222;SDS011;24936;46.328;11.026;2023-09-08T12:35:42;44.60;;;42.13;;
39222;SDS011;24936;46.328;11.026;2023-09-08T12:38:08;46.03;;;43.42;;
39222;SDS011;24936;46.328;11.026;2023-09-08T12:40:35;32.95;;;31.13;;
39222;SDS011;24936;46.328;11.026;2023-09-08T12:43:01;35.65;;;33.72;;
39222;SDS011;24936;46.328;11.026;2023-09-08T12:45:28;17.40;;;16.38;;
39222;SDS011;24936;46.328;11.026;2023-09-08T12:47:54;26.63;;;25.02;;
39222;SDS011;24936;46.328;11.026;2023-09-08T12:50:23;37.92;;;35.72;;
39222;SDS011;24936;46.328;11.026;2023-09-08T12:52:49;27.90;;;26.40;;
39222;SDS011;24936;46.328;11.026;2023-09-08T12:55:15;22.27;;;21.10;;
39222;SDS011;24936;46.328;11.026;2023-09-08T12:57:40;15.95;;;15.05;;
39222;SDS011;24936;46.328;11.026;2023-09-08T13:00:06;39.80;;;37.60;;
39222;SDS011;24936;46.328;11.026;2023-09-08T13:02:32;26.83;;;25.42;;
39222;SDS011;24936;46.328;11.026;2023-09-08T13:04:58;30.52;;;28.83;;
39222;SDS011;24936;46.328;11.026;2023-09-08T13:07:23;32.97;;;31.10;;
39222;SDS011;24936;46.328;11.026;2023-09-08T13:09:49;27.77;;;26.17;;
39222;SDS011;24936;46.328;11.026;2023-09-08T13:12:15;31.80;;;30.10;;
39222;SDS011;24936;46.328;11.026;2023-09-08T13:14:41;29.70;;;28.10;;
39222;SDS011;24936;46.328;11.026;2023-09-08T13:17:08;32.97;;;31.20;;
39222;SDS011;24936;46.328;11.026;2023-09-08T13:19:35;30.77;;;29.00;;
39222;SDS011;24936;46.328;11.026;2023-09-08T13:22:00;34.13;;;32.20;;
39222;SDS011;24936;46.328;11.026;2023-09-08T13:24:25;38.45;;;36.30;;
39222;SDS011;24936;46.328;11.026;2023-09-08T13:26:51;38.85;;;36.30;;
39222;SDS011;24936;46.328;11.026;2023-09-08T13:29:16;43.20;;;40.75;;
39222;SDS011;24936;46.328;11.026;2023-09-08T13:31:43;51.35;;;48.42;;
39222;SDS011;24936;46.328;11.026;2023-09-08T13:34:09;34.03;;;32.13;;
39222;SDS011;24936;46.328;11.026;2023-09-08T13:36:34;40.75;;;38.45;;
39222;SDS011;24936;46.328;11.026;2023-09-08T13:39:00;46.72;;;44.10;;
39222;SDS011;24936;46.328;11.026;2023-09-08T13:41:29;34.17;;;32.30;;
39222;SDS011;24936;46.328;11.026;2023-09-08T13:44:21;26.95;;;25.48;;
39222;SDS011;24936;46.328;11.026;2023-09-08T13:46:50;31.05;;;29.35;;
39222;SDS011;24936;46.328;11.026;2023-09-08T13:49:17;58.30;;;54.83;;
39222;SDS011;24936;46.328;11.026;2023-09-08T13:51:43;50.75;;;47.70;;
39222;SDS011;24936;46.328;11.026;2023-09-08T13:54:09;35.10;;;33.13;;
39222;SDS011;24936;46.328;11.026;2023-09-08T13:56:37;31.20;;;29.50;;
39222;SDS011;24936;46.328;11.026;2023-09-08T13:59:04;34.38;;;32.42;;
39222;SDS011;24936;46.328;11.026;2023-09-08T14:01:29;63.15;;;59.38;;
39222;SDS011;24936;46.328;11.026;2023-09-08T14:03:55;46.00;;;43.38;;
39222;SDS011;24936;46.328;11.026;2023-09-08T14:06:22;35.28;;;33.00;;
39222;SDS011;24936;46.328;11.026;2023-09-08T14:08:48;66.80;;;63.10;;
39222;SDS011;24936;46.328;11.026;2023-09-08T14:11:14;60.88;;;57.33;;
39222;SDS011;24936;46.328;11.026;2023-09-08T14:13:39;76.10;;;71.88;;
39222;SDS011;24936;46.328;11.026;2023-09-08T14:16:04;85.10;;;80.35;;
39222;SDS011;24936;46.328;11.026;2023-09-08T14:18:30;34.15;;;32.22;;
39222;SDS011;24936;46.328;11.026;2023-09-08T14:20:56;47.90;;;45.22;;
39222;SDS011;24936;46.328;11.026;2023-09-08T14:23:21;119.60;;;112.50;;
39222;SDS011;24936;46.328;11.026;2023-09-08T14:25:47;31.13;;;29.42;;
39222;SDS011;24936;46.328;11.026;2023-09-08T14:28:12;42.90;;;40.33;;
39222;SDS011;24936;46.328;11.026;2023-09-08T14:30:38;147.10;;;138.43;;
39222;SDS011;24936;46.328;11.026;2023-09-08T14:33:05;54.38;;;51.38;;
39222;SDS011;24936;46.328;11.026;2023-09-08T14:35:31;80.03;;;75.65;;
39222;SDS011;24936;46.328;11.026;2023-09-08T14:37:57;113.30;;;107.05;;
39222;SDS011;24936;46.328;11.026;2023-09-08T14:40:22;42.30;;;39.92;;
39222;SDS011;24936;46.328;11.026;2023-09-08T14:42:48;89.53;;;84.75;;
39222;SDS011;24936;46.328;11.026;2023-09-08T14:45:13;70.45;;;66.55;;
39222;SDS011;24936;46.328;11.026;2023-09-08T14:47:39;46.10;;;43.60;;
39222;SDS011;24936;46.328;11.026;2023-09-08T14:50:04;51.80;;;48.85;;